sensor_id;sensor_type;location;lat;lon;timestamp;P1;durP1;ratioP1;P2;durP2;ratioP2
78875;SDS011;68253;52.506;5.486;2024-03-07T00:00:12;29.85;;;13.13;;
78875;SDS011;68253;52.506;5.486;2024-03-07T00:02:48;27.13;;;11.65;;
78875;SDS011;68253;52.506;5.486;2024-03-07T00:05:15;25.15;;;11.38;;
78875;SDS011;68253;52.506;5.486;2024-03-07T00:07:42;25.08;;;11.40;;
78875;SDS011;68253;52.506;5.486;2024-03-07T00:10:08;24.70;;;11.38;;
78875;SDS011;68253;52.506;5.486;2024-03-07T00:12:36;26.83;;;11.77;;
78875;SDS011;68253;52.506;5.486;2024-03-07T00:15:13;23.00;;;11.27;;
78875;SDS011;68253;52.506;5.486;2024-03-07T00:17:40;24.88;;;11.10;;
78875;SDS011;68253;52.506;5.486;2024-03-07T00:20:07;24.42;;;11.13;;
78875;SDS011;68253;52.506;5.486;2024-03-07T00:22:40;25.85;;;11.63;;
78875;SDS011;68253;52.506;5.486;2024-03-07T00:25:07;25.38;;;11.45;;
78875;SDS011;68253;52.506;5.486;2024-03-07T00:27:35;24.63;;;10.23;;
78875;SDS011;68253;52.506;5.486;2024-03-07T00:30:07;23.02;;;10.70;;
78875;SDS011;68253;52.506;5.486;2024-03-07T00:32:34;23.52;;;11.23;;
78875;SDS011;68253;52.506;5.486;2024-03-07T00:35:05;23.10;;;10.88;;
78875;SDS011;68253;52.506;5.486;2024-03-07T00:37:32;25.88;;;11.45;;
78875;SDS011;68253;52.506;5.486;2024-03-07T00:39:58;23.80;;;11.18;;
78875;SDS011;68253;52.506;5.486;2024-03-07T00:42:24;25.23;;;11.73;;
78875;SDS011;68253;52.506;5.486;2024-03-07T00:44:51;26.40;;;11.38;;
78875;SDS011;68253;52.506;5.486;2024-03-07T00:47:17;25.17;;;11.25;;
78875;SDS011;68253;52.506;5.486;2024-03-07T00:49:43;24.55;;;11.55;;
78875;SDS011;68253;52.506;5.486;2024-03-07T00:52:13;25.20;;;11.30;;
78875;SDS011;68253;52.506;5.486;2024-03-07T00:54:40;25.83;;;11.13;;
78875;SDS011;68253;52.506;5.486;2024-03-07T00:57:08;24.00;;;11.43;;
78875;SDS011;68253;52.506;5.486;2024-03-07T00:59:35;25.70;;;11.48;;
78875;SDS011;68253;52.506;5.486;2024-03-07T01:02:02;24.83;;;11.40;;
78875;SDS011;68253;52.506;5.486;2024-03-07T01:04:29;26.30;;;11.48;;
78875;SDS011;68253;52.506;5.486;2024-03-07T01:06:57;25.27;;;11.77;;
78875;SDS011;68253;52.506;5.486;2024-03-07T01:09:23;24.95;;;10.88;;
78875;SDS011;68253;52.506;5.486;2024-03-07T01:11:50;24.67;;;11.30;;
78875;SDS011;68253;52.506;5.486;2024-03-07T01:14:17;28.17;;;12.00;;
78875;SDS011;68253;52.506;5.486;2024-03-07T01:16:43;25.92;;;11.65;;
78875;SDS011;68253;52.506;5.486;2024-03-07T01:19:10;25.58;;;11.60;;
78875;SDS011;68253;52.506;5.486;2024-03-07T01:21:37;23.88;;;11.30;;
78875;SDS011;68253;52.506;5.486;2024-03-07T01:24:03;26.58;;;12.38;;
78875;SDS011;68253;52.506;5.486;2024-03-07T01:26:30;28.63;;;12.38;;
78875;SDS011;68253;52.506;5.486;2024-03-07T01:28:56;27.33;;;12.57;;
78875;SDS011;68253;52.506;5.486;2024-03-07T01:31:23;27.05;;;12.98;;
78875;SDS011;68253;52.506;5.486;2024-03-07T01:33:50;26.13;;;11.68;;
78875;SDS011;68253;52.506;5.486;2024-03-07T01:36:18;27.50;;;12.40;;
78875;SDS011;68253;52.506;5.486;2024-03-07T01:38:44;24.25;;;10.90;;
78875;SDS011;68253;52.506;5.486;2024-03-07T01:41:10;25.80;;;11.40;;
78875;SDS011;68253;52.506;5.486;2024-03-07T01:43:37;27.98;;;11.50;;
78875;SDS011;68253;52.506;5.486;2024-03-07T01:46:09;27.23;;;12.35;;
78875;SDS011;68253;52.506;5.486;2024-03-07T01:48:36;26.88;;;11.95;;
78875;SDS011;68253;52.506;5.486;2024-03-07T01:51:03;29.17;;;11.55;;
78875;SDS011;68253;52.506;5.486;2024-03-07T01:53:30;27.77;;;12.40;;
78875;SDS011;68253;52.506;5.486;2024-03-07T01:55:57;25.98;;;12.20;;
78875;SDS011;68253;52.506;5.486;2024-03-07T01:58:24;25.05;;;11.18;;
78875;SDS011;68253;52.506;5.486;2024-03-07T02:00:51;26.17;;;11.63;;
78875;SDS011;68253;52.506;5.486;2024-03-07T02:03:18;27.67;;;12.20;;
78875;SDS011;68253;52.506;5.486;2024-03-07T02:05:44;27.83;;;11.48;;
78875;SDS011;68253;52.506;5.486;2024-03-07T02:08:11;25.70;;;11.15;;
78875;SDS011;68253;52.506;5.486;2024-03-07T02:10:37;27.52;;;11.70;;
78875;SDS011;68253;52.506;5.486;2024-03-07T02:13:03;27.17;;;12.00;;
78875;SDS011;68253;52.506;5.486;2024-03-07T02:15:29;25.92;;;10.82;;
78875;SDS011;68253;52.506;5.486;2024-03-07T02:17:56;24.90;;;11.43;;
78875;SDS011;68253;52.506;5.486;2024-03-07T02:20:23;26.70;;;11.45;;
78875;SDS011;68253;52.506;5.486;2024-03-07T02:22:49;25.90;;;11.65;;
78875;SDS011;68253;52.506;5.486;2024-03-07T02:25:16;26.33;;;12.68;;
78875;SDS011;68253;52.506;5.486;2024-03-07T02:27:42;27.35;;;11.48;;
78875;SDS011;68253;52.506;5.486;2024-03-07T02:30:11;26.48;;;11.80;;
78875;SDS011;68253;52.506;5.486;2024-03-07T02:32:38;25.98;;;11.68;;
78875;SDS011;68253;52.506;5.486;2024-03-07T02:35:04;24.23;;;10.90;;
78875;SDS011;68253;52.506;5.486;2024-03-07T02:37:31;25.60;;;11.38;;
78875;SDS011;68253;52.506;5.486;2024-03-07T02:39:57;25.00;;;11.27;;
78875;SDS011;68253;52.506;5.486;2024-03-07T02:42:24;29.25;;;12.07;;
78875;SDS011;68253;52.506;5.486;2024-03-07T02:44:50;28.20;;;12.13;;
78875;SDS011;68253;52.506;5.486;2024-03-07T02:47:18;25.25;;;10.95;;
78875;SDS011;68253;52.506;5.486;2024-03-07T02:49:44;26.77;;;11.68;;
78875;SDS011;68253;52.506;5.486;2024-03-07T02:52:10;27.05;;;12.07;;
78875;SDS011;68253;52.506;5.486;2024-03-07T02:54:36;24.00;;;11.50;;
78875;SDS011;68253;52.506;5.486;2024-03-07T02:57:03;26.80;;;11.93;;
78875;SDS011;68253;52.506;5.486;2024-03-07T02:59:29;27.80;;;12.18;;
78875;SDS011;68253;52.506;5.486;2024-03-07T03:01:55;27.00;;;12.38;;
78875;SDS011;68253;52.506;5.486;2024-03-07T03:04:21;25.80;;;11.10;;
78875;SDS011;68253;52.506;5.486;2024-03-07T03:06:47;27.58;;;12.18;;
78875;SDS011;68253;52.506;5.486;2024-03-07T03:09:14;28.23;;;12.75;;
78875;SDS011;68253;52.506;5.486;2024-03-07T03:11:46;29.05;;;12.77;;
78875;SDS011;68253;52.506;5.486;2024-03-07T03:14:12;26.38;;;12.02;;
78875;SDS011;68253;52.506;5.486;2024-03-07T03:16:43;27.48;;;11.98;;
78875;SDS011;68253;52.506;5.486;2024-03-07T03:21:36;26.08;;;11.23;;
78875;SDS011;68253;52.506;5.486;2024-03-07T03:24:03;25.67;;;11.15;;
78875;SDS011;68253;52.506;5.486;2024-03-07T03:26:30;24.42;;;11.23;;
78875;SDS011;68253;52.506;5.486;2024-03-07T03:28:57;24.95;;;11.20;;
78875;SDS011;68253;52.506;5.486;2024-03-07T03:31:24;23.67;;;10.93;;
78875;SDS011;68253;52.506;5.486;2024-03-07T03:33:50;28.08;;;12.30;;
78875;SDS011;68253;52.506;5.486;2024-03-07T03:36:17;27.05;;;11.70;;
78875;SDS011;68253;52.506;5.486;2024-03-07T03:38:44;25.33;;;11.75;;
78875;SDS011;68253;52.506;5.486;2024-03-07T03:41:15;27.05;;;11.70;;
78875;SDS011;68253;52.506;5.486;2024-03-07T03:43:42;26.58;;;12.00;;
78875;SDS011;68253;52.506;5.486;2024-03-07T03:46:09;24.45;;;11.35;;
78875;SDS011;68253;52.506;5.486;2024-03-07T03:48:37;26.30;;;11.88;;
78875;SDS011;68253;52.506;5.486;2024-03-07T03:51:10;25.10;;;11.80;;
78875;SDS011;68253;52.506;5.486;2024-03-07T03:53:38;27.95;;;12.85;;
78875;SDS011;68253;52.506;5.486;2024-03-07T03:56:04;24.92;;;11.60;;
78875;SDS011;68253;52.506;5.486;2024-03-07T03:58:31;27.92;;;11.45;;
78875;SDS011;68253;52.506;5.486;2024-03-07T04:00:57;28.55;;;13.07;;
78875;SDS011;68253;52.506;5.486;2024-03-07T04:03:26;24.95;;;11.85;;
78875;SDS011;68253;52.506;5.486;2024-03-07T04:05:52;25.25;;;12.20;;
78875;SDS011;68253;52.506;5.486;2024-03-07T04:08:20;25.05;;;11.50;;
78875;SDS011;68253;52.506;5.486;2024-03-07T04:10:47;26.90;;;11.18;;
78875;SDS011;68253;52.506;5.486;2024-03-07T04:13:13;25.98;;;12.07;;
78875;SDS011;68253;52.506;5.486;2024-03-07T04:15:39;23.42;;;11.13;;
78875;SDS011;68253;52.506;5.486;2024-03-07T04:18:05;25.48;;;11.85;;
78875;SDS011;68253;52.506;5.486;2024-03-07T04:20:31;25.23;;;11.60;;
78875;SDS011;68253;52.506;5.486;2024-03-07T04:22:58;26.80;;;12.18;;
78875;SDS011;68253;52.506;5.486;2024-03-07T04:25:24;25.20;;;11.85;;
78875;SDS011;68253;52.506;5.486;2024-03-07T04:27:50;25.58;;;12.10;;
78875;SDS011;68253;52.506;5.486;2024-03-07T04:30:16;26.27;;;12.48;;
78875;SDS011;68253;52.506;5.486;2024-03-07T04:32:43;23.50;;;10.70;;
78875;SDS011;68253;52.506;5.486;2024-03-07T04:35:09;24.73;;;11.38;;
78875;SDS011;68253;52.506;5.486;2024-03-07T04:37:39;24.92;;;11.43;;
78875;SDS011;68253;52.506;5.486;2024-03-07T04:40:07;25.33;;;11.60;;
78875;SDS011;68253;52.506;5.486;2024-03-07T04:42:44;23.38;;;10.50;;
78875;SDS011;68253;52.506;5.486;2024-03-07T04:45:12;25.88;;;11.52;;
78875;SDS011;68253;52.506;5.486;2024-03-07T04:47:39;24.17;;;11.57;;
78875;SDS011;68253;52.506;5.486;2024-03-07T04:50:07;28.23;;;12.00;;
78875;SDS011;68253;52.506;5.486;2024-03-07T04:52:39;26.00;;;11.45;;
78875;SDS011;68253;52.506;5.486;2024-03-07T04:55:06;26.75;;;12.18;;
78875;SDS011;68253;52.506;5.486;2024-03-07T04:57:36;26.05;;;11.93;;
78875;SDS011;68253;52.506;5.486;2024-03-07T05:00:08;26.45;;;11.57;;
78875;SDS011;68253;52.506;5.486;2024-03-07T05:02:40;30.40;;;12.45;;
78875;SDS011;68253;52.506;5.486;2024-03-07T05:05:06;25.67;;;12.23;;
78875;SDS011;68253;52.506;5.486;2024-03-07T05:07:33;27.30;;;12.05;;
78875;SDS011;68253;52.506;5.486;2024-03-07T05:10:02;27.70;;;11.13;;
78875;SDS011;68253;52.506;5.486;2024-03-07T05:12:30;27.17;;;11.75;;
78875;SDS011;68253;52.506;5.486;2024-03-07T05:14:56;27.85;;;12.85;;
78875;SDS011;68253;52.506;5.486;2024-03-07T05:17:23;25.90;;;11.88;;
78875;SDS011;68253;52.506;5.486;2024-03-07T05:19:49;23.83;;;10.93;;
78875;SDS011;68253;52.506;5.486;2024-03-07T05:22:15;26.42;;;11.70;;
78875;SDS011;68253;52.506;5.486;2024-03-07T05:24:42;26.05;;;11.90;;
78875;SDS011;68253;52.506;5.486;2024-03-07T05:27:08;24.38;;;11.32;;
78875;SDS011;68253;52.506;5.486;2024-03-07T05:29:38;24.10;;;10.85;;
78875;SDS011;68253;52.506;5.486;2024-03-07T05:32:20;26.55;;;11.98;;
78875;SDS011;68253;52.506;5.486;2024-03-07T05:34:51;24.70;;;10.63;;
78875;SDS011;68253;52.506;5.486;2024-03-07T05:37:19;24.30;;;10.65;;
78875;SDS011;68253;52.506;5.486;2024-03-07T05:39:47;23.65;;;10.93;;
78875;SDS011;68253;52.506;5.486;2024-03-07T05:42:14;26.05;;;11.38;;
78875;SDS011;68253;52.506;5.486;2024-03-07T05:44:43;25.25;;;11.30;;
78875;SDS011;68253;52.506;5.486;2024-03-07T05:47:10;24.60;;;11.27;;
78875;SDS011;68253;52.506;5.486;2024-03-07T05:49:39;24.75;;;11.13;;
78875;SDS011;68253;52.506;5.486;2024-03-07T05:52:06;22.27;;;10.98;;
78875;SDS011;68253;52.506;5.486;2024-03-07T05:54:32;22.13;;;10.45;;
78875;SDS011;68253;52.506;5.486;2024-03-07T05:56:58;23.75;;;11.13;;
78875;SDS011;68253;52.506;5.486;2024-03-07T05:59:25;23.60;;;11.05;;
78875;SDS011;68253;52.506;5.486;2024-03-07T06:01:54;21.55;;;10.60;;
78875;SDS011;68253;52.506;5.486;2024-03-07T06:04:21;21.38;;;10.00;;
78875;SDS011;68253;52.506;5.486;2024-03-07T06:06:47;24.42;;;10.32;;
78875;SDS011;68253;52.506;5.486;2024-03-07T06:09:14;22.75;;;11.63;;
78875;SDS011;68253;52.506;5.486;2024-03-07T06:11:40;23.73;;;11.23;;
78875;SDS011;68253;52.506;5.486;2024-03-07T06:14:10;23.30;;;11.13;;
78875;SDS011;68253;52.506;5.486;2024-03-07T06:16:39;21.27;;;10.13;;
78875;SDS011;68253;52.506;5.486;2024-03-07T06:19:06;25.77;;;11.07;;
78875;SDS011;68253;52.506;5.486;2024-03-07T06:21:34;21.55;;;9.60;;
78875;SDS011;68253;52.506;5.486;2024-03-07T06:24:01;22.08;;;10.48;;
78875;SDS011;68253;52.506;5.486;2024-03-07T06:26:35;22.48;;;10.63;;
78875;SDS011;68253;52.506;5.486;2024-03-07T06:29:03;23.60;;;9.93;;
78875;SDS011;68253;52.506;5.486;2024-03-07T06:31:30;20.55;;;9.18;;
78875;SDS011;68253;52.506;5.486;2024-03-07T06:33:57;22.67;;;10.68;;
78875;SDS011;68253;52.506;5.486;2024-03-07T06:36:23;20.55;;;9.80;;
78875;SDS011;68253;52.506;5.486;2024-03-07T06:38:50;18.83;;;9.32;;
78875;SDS011;68253;52.506;5.486;2024-03-07T06:41:17;22.50;;;10.00;;
78875;SDS011;68253;52.506;5.486;2024-03-07T06:43:43;21.33;;;10.30;;
78875;SDS011;68253;52.506;5.486;2024-03-07T06:46:13;21.15;;;9.65;;
78875;SDS011;68253;52.506;5.486;2024-03-07T06:48:39;19.85;;;8.70;;
78875;SDS011;68253;52.506;5.486;2024-03-07T06:51:08;21.15;;;9.73;;
78875;SDS011;68253;52.506;5.486;2024-03-07T06:53:34;23.65;;;11.32;;
78875;SDS011;68253;52.506;5.486;2024-03-07T06:56:00;22.92;;;11.50;;
78875;SDS011;68253;52.506;5.486;2024-03-07T06:58:26;19.55;;;9.88;;
78875;SDS011;68253;52.506;5.486;2024-03-07T07:00:53;19.08;;;8.95;;
78875;SDS011;68253;52.506;5.486;2024-03-07T07:03:23;20.42;;;10.20;;
78875;SDS011;68253;52.506;5.486;2024-03-07T07:05:50;20.70;;;9.50;;
78875;SDS011;68253;52.506;5.486;2024-03-07T07:08:16;20.80;;;9.30;;
78875;SDS011;68253;52.506;5.486;2024-03-07T07:10:42;21.08;;;9.90;;
78875;SDS011;68253;52.506;5.486;2024-03-07T07:13:09;19.08;;;9.38;;
78875;SDS011;68253;52.506;5.486;2024-03-07T07:15:36;20.33;;;8.98;;
78875;SDS011;68253;52.506;5.486;2024-03-07T07:18:02;21.70;;;10.30;;
78875;SDS011;68253;52.506;5.486;2024-03-07T07:20:29;17.92;;;9.02;;
78875;SDS011;68253;52.506;5.486;2024-03-07T07:22:55;18.88;;;8.48;;
78875;SDS011;68253;52.506;5.486;2024-03-07T07:25:23;19.02;;;9.30;;
78875;SDS011;68253;52.506;5.486;2024-03-07T07:27:50;21.20;;;10.00;;
78875;SDS011;68253;52.506;5.486;2024-03-07T07:30:18;20.60;;;9.30;;
78875;SDS011;68253;52.506;5.486;2024-03-07T07:32:46;19.02;;;9.55;;
78875;SDS011;68253;52.506;5.486;2024-03-07T07:35:13;20.98;;;10.00;;
78875;SDS011;68253;52.506;5.486;2024-03-07T07:37:39;18.25;;;9.32;;
78875;SDS011;68253;52.506;5.486;2024-03-07T07:40:06;17.60;;;8.82;;
78875;SDS011;68253;52.506;5.486;2024-03-07T07:42:40;18.15;;;8.52;;
78875;SDS011;68253;52.506;5.486;2024-03-07T07:45:10;18.65;;;9.52;;
78875;SDS011;68253;52.506;5.486;2024-03-07T07:47:40;17.85;;;8.88;;
78875;SDS011;68253;52.506;5.486;2024-03-07T07:50:21;20.08;;;9.68;;
78875;SDS011;68253;52.506;5.486;2024-03-07T07:52:49;17.67;;;8.70;;
78875;SDS011;68253;52.506;5.486;2024-03-07T07:55:19;17.05;;;8.32;;
78875;SDS011;68253;52.506;5.486;2024-03-07T07:57:48;18.20;;;9.55;;
78875;SDS011;68253;52.506;5.486;2024-03-07T08:00:22;16.33;;;8.18;;
78875;SDS011;68253;52.506;5.486;2024-03-07T08:05:21;17.90;;;9.00;;
78875;SDS011;68253;52.506;5.486;2024-03-07T08:07:51;17.20;;;8.40;;
78875;SDS011;68253;52.506;5.486;2024-03-07T08:10:19;18.38;;;8.45;;
78875;SDS011;68253;52.506;5.486;2024-03-07T08:12:46;17.42;;;9.10;;
78875;SDS011;68253;52.506;5.486;2024-03-07T08:15:12;15.93;;;7.95;;
78875;SDS011;68253;52.506;5.486;2024-03-07T08:17:43;16.42;;;8.10;;
78875;SDS011;68253;52.506;5.486;2024-03-07T08:20:17;15.43;;;8.15;;
78875;SDS011;68253;52.506;5.486;2024-03-07T08:22:46;16.38;;;7.68;;
78875;SDS011;68253;52.506;5.486;2024-03-07T08:25:13;16.10;;;7.75;;
78875;SDS011;68253;52.506;5.486;2024-03-07T08:27:40;14.52;;;7.43;;
78875;SDS011;68253;52.506;5.486;2024-03-07T08:30:08;15.85;;;8.27;;
78875;SDS011;68253;52.506;5.486;2024-03-07T08:32:39;16.65;;;8.05;;
78875;SDS011;68253;52.506;5.486;2024-03-07T08:35:11;15.30;;;8.15;;
78875;SDS011;68253;52.506;5.486;2024-03-07T08:37:48;17.52;;;8.63;;
78875;SDS011;68253;52.506;5.486;2024-03-07T08:40:18;15.98;;;8.25;;
78875;SDS011;68253;52.506;5.486;2024-03-07T08:42:52;15.82;;;8.25;;
78875;SDS011;68253;52.506;5.486;2024-03-07T08:45:21;16.05;;;8.45;;
78875;SDS011;68253;52.506;5.486;2024-03-07T08:47:49;17.45;;;7.88;;
78875;SDS011;68253;52.506;5.486;2024-03-07T08:50:16;14.70;;;7.45;;
78875;SDS011;68253;52.506;5.486;2024-03-07T08:52:46;18.17;;;9.57;;
78875;SDS011;68253;52.506;5.486;2024-03-07T08:55:14;14.32;;;7.22;;
78875;SDS011;68253;52.506;5.486;2024-03-07T08:57:42;20.02;;;9.07;;
78875;SDS011;68253;52.506;5.486;2024-03-07T09:00:12;16.25;;;8.13;;
78875;SDS011;68253;52.506;5.486;2024-03-07T09:02:58;16.85;;;8.77;;
78875;SDS011;68253;52.506;5.486;2024-03-07T09:05:25;15.90;;;7.88;;
78875;SDS011;68253;52.506;5.486;2024-03-07T09:07:52;16.08;;;7.95;;
78875;SDS011;68253;52.506;5.486;2024-03-07T09:10:20;16.20;;;7.72;;
78875;SDS011;68253;52.506;5.486;2024-03-07T09:12:47;16.48;;;8.52;;
78875;SDS011;68253;52.506;5.486;2024-03-07T09:15:15;15.85;;;9.07;;
78875;SDS011;68253;52.506;5.486;2024-03-07T09:17:43;14.80;;;7.55;;
78875;SDS011;68253;52.506;5.486;2024-03-07T09:20:10;14.30;;;7.07;;
78875;SDS011;68253;52.506;5.486;2024-03-07T09:22:40;15.23;;;7.72;;
78875;SDS011;68253;52.506;5.486;2024-03-07T09:25:08;15.10;;;7.43;;
78875;SDS011;68253;52.506;5.486;2024-03-07T09:27:34;14.15;;;7.15;;
78875;SDS011;68253;52.506;5.486;2024-03-07T09:30:01;15.30;;;7.50;;
78875;SDS011;68253;52.506;5.486;2024-03-07T09:32:27;14.88;;;6.85;;
78875;SDS011;68253;52.506;5.486;2024-03-07T09:34:53;13.55;;;7.20;;
78875;SDS011;68253;52.506;5.486;2024-03-07T09:37:20;14.73;;;7.38;;
78875;SDS011;68253;52.506;5.486;2024-03-07T09:39:49;15.15;;;8.00;;
78875;SDS011;68253;52.506;5.486;2024-03-07T09:42:16;14.75;;;7.60;;
78875;SDS011;68253;52.506;5.486;2024-03-07T09:44:43;13.80;;;6.97;;
78875;SDS011;68253;52.506;5.486;2024-03-07T09:47:12;14.10;;;6.70;;
78875;SDS011;68253;52.506;5.486;2024-03-07T09:49:39;13.13;;;6.25;;
78875;SDS011;68253;52.506;5.486;2024-03-07T09:52:08;13.82;;;7.05;;
78875;SDS011;68253;52.506;5.486;2024-03-07T09:54:37;12.73;;;6.15;;
78875;SDS011;68253;52.506;5.486;2024-03-07T09:57:05;12.40;;;6.05;;
78875;SDS011;68253;52.506;5.486;2024-03-07T09:59:36;13.75;;;6.13;;
78875;SDS011;68253;52.506;5.486;2024-03-07T10:02:05;12.80;;;6.85;;
78875;SDS011;68253;52.506;5.486;2024-03-07T10:07:14;13.77;;;7.10;;
78875;SDS011;68253;52.506;5.486;2024-03-07T10:09:42;13.63;;;6.43;;
78875;SDS011;68253;52.506;5.486;2024-03-07T10:12:08;14.75;;;7.25;;
78875;SDS011;68253;52.506;5.486;2024-03-07T10:14:38;14.00;;;6.60;;
78875;SDS011;68253;52.506;5.486;2024-03-07T10:17:04;13.05;;;6.38;;
78875;SDS011;68253;52.506;5.486;2024-03-07T10:19:31;14.55;;;7.00;;
78875;SDS011;68253;52.506;5.486;2024-03-07T10:21:57;14.40;;;7.05;;
78875;SDS011;68253;52.506;5.486;2024-03-07T10:26:53;16.60;;;7.95;;
78875;SDS011;68253;52.506;5.486;2024-03-07T10:29:22;14.90;;;7.20;;
78875;SDS011;68253;52.506;5.486;2024-03-07T10:31:49;14.48;;;7.45;;
78875;SDS011;68253;52.506;5.486;2024-03-07T10:34:15;14.50;;;6.93;;
78875;SDS011;68253;52.506;5.486;2024-03-07T10:36:42;13.77;;;7.07;;
78875;SDS011;68253;52.506;5.486;2024-03-07T10:39:09;14.88;;;7.20;;
78875;SDS011;68253;52.506;5.486;2024-03-07T10:41:44;16.30;;;7.65;;
78875;SDS011;68253;52.506;5.486;2024-03-07T10:44:30;16.90;;;8.57;;
78875;SDS011;68253;52.506;5.486;2024-03-07T10:46:57;15.57;;;8.23;;
78875;SDS011;68253;52.506;5.486;2024-03-07T10:49:25;15.95;;;7.53;;
78875;SDS011;68253;52.506;5.486;2024-03-07T11:00:16;15.57;;;7.50;;
78875;SDS011;68253;52.506;5.486;2024-03-07T11:03:02;16.55;;;8.98;;
78875;SDS011;68253;52.506;5.486;2024-03-07T11:05:32;16.55;;;8.05;;
78875;SDS011;68253;52.506;5.486;2024-03-07T11:08:00;15.50;;;7.65;;
78875;SDS011;68253;52.506;5.486;2024-03-07T11:10:30;16.15;;;8.32;;
78875;SDS011;68253;52.506;5.486;2024-03-07T11:12:57;14.65;;;7.50;;
78875;SDS011;68253;52.506;5.486;2024-03-07T11:15:24;19.60;;;9.25;;
78875;SDS011;68253;52.506;5.486;2024-03-07T11:17:53;17.52;;;9.15;;
78875;SDS011;68253;52.506;5.486;2024-03-07T11:20:21;15.38;;;8.38;;
78875;SDS011;68253;52.506;5.486;2024-03-07T11:22:48;17.45;;;8.93;;
78875;SDS011;68253;52.506;5.486;2024-03-07T11:25:18;19.58;;;10.65;;
78875;SDS011;68253;52.506;5.486;2024-03-07T11:27:56;17.05;;;8.77;;
78875;SDS011;68253;52.506;5.486;2024-03-07T11:30:24;18.23;;;9.18;;
78875;SDS011;68253;52.506;5.486;2024-03-07T11:32:51;18.40;;;9.60;;
78875;SDS011;68253;52.506;5.486;2024-03-07T11:35:40;17.73;;;8.68;;
78875;SDS011;68253;52.506;5.486;2024-03-07T11:38:06;15.57;;;7.68;;
78875;SDS011;68253;52.506;5.486;2024-03-07T11:43:00;15.75;;;8.13;;
78875;SDS011;68253;52.506;5.486;2024-03-07T11:45:30;20.88;;;10.18;;
78875;SDS011;68253;52.506;5.486;2024-03-07T11:48:10;18.23;;;9.68;;
78875;SDS011;68253;52.506;5.486;2024-03-07T11:50:37;16.48;;;8.45;;
78875;SDS011;68253;52.506;5.486;2024-03-07T11:53:05;17.95;;;9.02;;
78875;SDS011;68253;52.506;5.486;2024-03-07T11:55:36;19.48;;;10.10;;
78875;SDS011;68253;52.506;5.486;2024-03-07T11:58:12;19.13;;;10.25;;
78875;SDS011;68253;52.506;5.486;2024-03-07T12:00:42;16.83;;;9.05;;
78875;SDS011;68253;52.506;5.486;2024-03-07T12:03:12;18.20;;;9.98;;
78875;SDS011;68253;52.506;5.486;2024-03-07T12:05:39;16.42;;;8.80;;
78875;SDS011;68253;52.506;5.486;2024-03-07T12:08:06;19.58;;;9.48;;
78875;SDS011;68253;52.506;5.486;2024-03-07T12:10:35;17.20;;;9.15;;
78875;SDS011;68253;52.506;5.486;2024-03-07T12:13:03;15.68;;;8.32;;
78875;SDS011;68253;52.506;5.486;2024-03-07T12:15:29;17.55;;;9.73;;
78875;SDS011;68253;52.506;5.486;2024-03-07T12:17:57;16.52;;;8.85;;
78875;SDS011;68253;52.506;5.486;2024-03-07T12:20:23;15.82;;;8.52;;
78875;SDS011;68253;52.506;5.486;2024-03-07T12:22:50;16.98;;;8.45;;
78875;SDS011;68253;52.506;5.486;2024-03-07T12:25:19;18.35;;;9.27;;
78875;SDS011;68253;52.506;5.486;2024-03-07T12:27:59;19.30;;;10.35;;
78875;SDS011;68253;52.506;5.486;2024-03-07T12:30:34;17.52;;;8.82;;
78875;SDS011;68253;52.506;5.486;2024-03-07T12:33:01;18.83;;;9.10;;
78875;SDS011;68253;52.506;5.486;2024-03-07T12:35:32;17.42;;;9.18;;
78875;SDS011;68253;52.506;5.486;2024-03-07T12:37:59;16.55;;;8.40;;
78875;SDS011;68253;52.506;5.486;2024-03-07T12:40:25;19.27;;;9.32;;
78875;SDS011;68253;52.506;5.486;2024-03-07T12:42:55;19.05;;;9.63;;
78875;SDS011;68253;52.506;5.486;2024-03-07T12:45:21;19.63;;;10.35;;
78875;SDS011;68253;52.506;5.486;2024-03-07T12:47:47;18.00;;;9.23;;
78875;SDS011;68253;52.506;5.486;2024-03-07T12:50:18;17.73;;;8.98;;
78875;SDS011;68253;52.506;5.486;2024-03-07T12:52:47;19.55;;;10.02;;
78875;SDS011;68253;52.506;5.486;2024-03-07T12:55:17;19.02;;;9.30;;
78875;SDS011;68253;52.506;5.486;2024-03-07T12:57:44;18.52;;;9.70;;
78875;SDS011;68253;52.506;5.486;2024-03-07T13:00:11;18.75;;;9.27;;
78875;SDS011;68253;52.506;5.486;2024-03-07T13:02:47;18.42;;;9.40;;
78875;SDS011;68253;52.506;5.486;2024-03-07T13:05:14;19.38;;;10.88;;
78875;SDS011;68253;52.506;5.486;2024-03-07T13:07:49;16.23;;;8.82;;
78875;SDS011;68253;52.506;5.486;2024-03-07T13:10:16;17.20;;;9.00;;
78875;SDS011;68253;52.506;5.486;2024-03-07T13:12:44;16.95;;;8.68;;
78875;SDS011;68253;52.506;5.486;2024-03-07T13:15:11;17.48;;;8.55;;
78875;SDS011;68253;52.506;5.486;2024-03-07T13:17:38;20.05;;;9.88;;
78875;SDS011;68253;52.506;5.486;2024-03-07T13:20:04;18.15;;;9.68;;
78875;SDS011;68253;52.506;5.486;2024-03-07T13:22:45;18.23;;;9.50;;
78875;SDS011;68253;52.506;5.486;2024-03-07T13:25:20;18.83;;;9.57;;
78875;SDS011;68253;52.506;5.486;2024-03-07T13:27:54;16.25;;;8.68;;
78875;SDS011;68253;52.506;5.486;2024-03-07T13:30:25;16.42;;;8.00;;
78875;SDS011;68253;52.506;5.486;2024-03-07T13:32:55;16.90;;;8.93;;
78875;SDS011;68253;52.506;5.486;2024-03-07T13:35:23;16.20;;;8.15;;
78875;SDS011;68253;52.506;5.486;2024-03-07T13:37:51;16.05;;;8.00;;
78875;SDS011;68253;52.506;5.486;2024-03-07T13:40:25;15.30;;;7.80;;
78875;SDS011;68253;52.506;5.486;2024-03-07T13:42:56;16.95;;;9.52;;
78875;SDS011;68253;52.506;5.486;2024-03-07T13:45:24;15.73;;;7.78;;
78875;SDS011;68253;52.506;5.486;2024-03-07T13:47:57;15.60;;;8.77;;
78875;SDS011;68253;52.506;5.486;2024-03-07T13:50:25;15.27;;;8.38;;
78875;SDS011;68253;52.506;5.486;2024-03-07T13:52:54;14.25;;;7.55;;
78875;SDS011;68253;52.506;5.486;2024-03-07T14:06:33;17.73;;;9.07;;
78875;SDS011;68253;52.506;5.486;2024-03-07T14:29:43;16.42;;;8.70;;
78875;SDS011;68253;52.506;5.486;2024-03-07T14:32:19;14.18;;;7.22;;
78875;SDS011;68253;52.506;5.486;2024-03-07T14:38:06;17.88;;;8.18;;
78875;SDS011;68253;52.506;5.486;2024-03-07T14:40:55;16.02;;;7.93;;
78875;SDS011;68253;52.506;5.486;2024-03-07T14:43:22;14.63;;;7.47;;
78875;SDS011;68253;52.506;5.486;2024-03-07T14:45:49;17.00;;;9.35;;
78875;SDS011;68253;52.506;5.486;2024-03-07T14:48:17;17.17;;;8.52;;
78875;SDS011;68253;52.506;5.486;2024-03-07T14:50:44;14.95;;;7.35;;
78875;SDS011;68253;52.506;5.486;2024-03-07T14:53:12;15.30;;;7.18;;
78875;SDS011;68253;52.506;5.486;2024-03-07T14:55:39;16.25;;;7.47;;
78875;SDS011;68253;52.506;5.486;2024-03-07T14:58:06;15.50;;;7.82;;
78875;SDS011;68253;52.506;5.486;2024-03-07T15:00:36;16.02;;;8.10;;
78875;SDS011;68253;52.506;5.486;2024-03-07T15:03:10;16.85;;;8.13;;
78875;SDS011;68253;52.506;5.486;2024-03-07T15:05:42;14.93;;;7.00;;
78875;SDS011;68253;52.506;5.486;2024-03-07T15:08:12;16.08;;;7.95;;
78875;SDS011;68253;52.506;5.486;2024-03-07T15:10:43;16.13;;;7.80;;
78875;SDS011;68253;52.506;5.486;2024-03-07T15:13:14;17.20;;;7.80;;
78875;SDS011;68253;52.506;5.486;2024-03-07T15:15:40;16.25;;;7.72;;
78875;SDS011;68253;52.506;5.486;2024-03-07T15:18:08;16.83;;;8.15;;
78875;SDS011;68253;52.506;5.486;2024-03-07T15:20:36;17.58;;;9.02;;
78875;SDS011;68253;52.506;5.486;2024-03-07T15:23:02;17.63;;;7.63;;
78875;SDS011;68253;52.506;5.486;2024-03-07T15:25:29;17.30;;;9.18;;
78875;SDS011;68253;52.506;5.486;2024-03-07T15:27:56;17.90;;;8.10;;
78875;SDS011;68253;52.506;5.486;2024-03-07T15:30:24;17.05;;;8.48;;